Time;durP1;ratioP1;P1;durP2;ratioP2;P2;SDS_P1;SDS_P2;PMS_P1;PMS_P2;Temp;Humidity;BMP_temperature;BMP_pressure;BME280_temperature;BME280_humidity;BME280_pressure;Samples;Min_cycle;Max_cycle;Signal;HPM_P1;HPM_P2
2022/10/13 00:01:26;;;;;;;16.58;12.63;;;12.10;43.20;;;;;;5092852;28;20202;-43
2022/10/13 00:03:52;;;;;;;19.13;10.57;;;12.10;43.10;;;;;;5091923;28;20655;-44
2022/10/13 00:06:20;;;;;;;18.38;12.25;;;12.10;43.10;;;;;;5092071;28;20219;-43
2022/10/13 00:08:46;;;;;;;16.20;12.20;;;12.10;43.10;;;;;;5091839;28;20730;-43
2022/10/13 00:11:27;;;;;;;15.30;12.83;;;12.00;43.40;;;;;;5092139;28;20254;-42
2022/10/13 00:13:59;;;;;;;15.95;11.75;;;12.00;43.50;;;;;;5092165;28;20425;-42
2022/10/13 00:16:26;;;;;;;16.67;11.35;;;11.90;43.40;;;;;;5091583;28;20175;-43
2022/10/13 00:18:52;;;;;;;16.98;11.23;;;11.90;43.40;;;;;;5091809;28;20218;-42
2022/10/13 00:21:20;;;;;;;17.92;10.15;;;12.00;43.40;;;;;;5092337;28;20176;-42
2022/10/13 00:23:47;;;;;;;15.88;13.30;;;11.90;43.40;;;;;;5092226;28;20250;-42
2022/10/13 00:26:15;;;;;;;18.17;12.90;;;11.90;43.20;;;;;;5091465;28;20168;-42
2022/10/13 00:28:41;;;;;;;16.52;9.90;;;11.90;43.40;;;;;;5091985;28;20212;-43
2022/10/13 00:31:21;;;;;;;17.40;11.20;;;11.90;43.30;;;;;;5092257;28;20300;-42
2022/10/13 00:33:48;;;;;;;13.60;10.88;;;11.80;43.20;;;;;;5091954;28;20509;-42
2022/10/13 00:36:14;;;;;;;13.95;10.38;;;11.80;43.30;;;;;;5091193;28;20536;-43
2022/10/13 00:38:40;;;;;;;13.80;10.13;;;11.80;43.30;;;;;;5091894;28;20501;-43
2022/10/13 00:41:06;;;;;;;14.80;10.37;;;11.80;43.40;;;;;;5092180;28;20245;-43
2022/10/13 00:43:51;;;;;;;12.43;9.77;;;11.80;43.20;;;;;;5091815;28;20406;-43
2022/10/13 00:46:17;;;;;;;16.33;11.13;;;11.80;43.20;;;;;;5091245;28;20179;-43
2022/10/13 00:48:45;;;;;;;14.43;10.30;;;11.70;43.10;;;;;;5091674;28;20207;-43
2022/10/13 00:51:13;;;;;;;11.88;9.15;;;11.70;43.10;;;;;;5091989;28;20172;-43
2022/10/13 00:53:39;;;;;;;11.98;9.50;;;11.70;43.00;;;;;;5091898;28;20199;-41
2022/10/13 00:56:08;;;;;;;15.48;9.38;;;11.70;43.30;;;;;;5091401;28;20516;-43
2022/10/13 00:58:36;;;;;;;11.00;7.85;;;11.60;43.30;;;;;;5091681;28;20196;-42
2022/10/13 01:01:03;;;;;;;15.73;9.02;;;11.60;43.30;;;;;;5091666;28;20179;-43
2022/10/13 01:03:29;;;;;;;13.10;8.70;;;11.60;43.30;;;;;;5091616;28;20187;-42
2022/10/13 01:05:59;;;;;;;11.90;9.05;;;11.60;43.20;;;;;;5091139;28;20176;-43
2022/10/13 01:08:26;;;;;;;14.63;9.45;;;11.60;43.30;;;;;;5091492;28;20232;-42
2022/10/13 01:11:11;;;;;;;17.33;9.35;;;11.50;43.30;;;;;;5091625;28;20576;-43
2022/10/13 01:14:02;;;;;;;13.57;9.77;;;11.50;43.40;;;;;;5091779;28;20176;-44
2022/10/13 01:16:39;;;;;;;12.10;8.93;;;11.60;43.40;;;;;;5094755;28;20237;-42
2022/10/13 01:19:45;;;;;;;10.77;8.65;;;11.60;43.50;;;;;;5095084;28;20215;-42
2022/10/13 01:22:18;;;;;;;11.05;8.50;;;11.60;43.90;;;;;;5095303;28;20168;-42
2022/10/13 01:24:55;;;;;;;13.88;7.50;;;11.50;44.10;;;;;;5095241;28;20184;-42
2022/10/13 01:27:40;;;;;;;16.40;9.75;;;11.50;44.00;;;;;;5094290;28;20183;-43
2022/10/13 01:30:11;;;;;;;13.20;8.00;;;11.60;44.00;;;;;;5095387;28;20203;-42
2022/10/13 01:32:40;;;;;;;17.55;8.93;;;11.60;44.10;;;;;;5095209;28;20172;-42
2022/10/13 01:35:31;;;;;;;12.85;7.07;;;11.60;44.00;;;;;;5095116;28;20172;-43
2022/10/13 01:38:10;;;;;;;14.00;8.77;;;11.70;44.10;;;;;;5094443;28;20643;-42
2022/10/13 01:40:50;;;;;;;14.25;7.88;;;11.70;44.10;;;;;;5094683;28;20180;-43
2022/10/13 01:43:29;;;;;;;8.52;6.43;;;11.70;44.10;;;;;;5094949;28;20174;-43
2022/10/13 01:46:12;;;;;;;15.10;8.43;;;11.70;44.30;;;;;;5093965;28;20616;-43
2022/10/13 01:48:40;;;;;;;12.48;7.88;;;11.70;44.40;;;;;;5094486;28;20196;-41
2022/10/13 01:51:11;;;;;;;12.95;9.15;;;11.80;44.40;;;;;;5094506;28;20172;-42
2022/10/13 01:53:37;;;;;;;15.27;9.07;;;11.80;44.50;;;;;;5094515;28;20175;-43
2022/10/13 01:56:03;;;;;;;13.80;7.78;;;11.80;44.50;;;;;;5093801;28;20176;-43
2022/10/13 01:58:32;;;;;;;16.30;8.90;;;11.90;44.70;;;;;;5094356;28;20207;-42
2022/10/13 02:01:07;;;;;;;13.23;7.75;;;11.90;44.80;;;;;;5094257;28;20413;-42
2022/10/13 02:03:46;;;;;;;11.40;7.72;;;11.90;44.70;;;;;;5094284;28;20619;-43
2022/10/13 02:06:51;;;;;;;9.23;8.30;;;11.90;44.60;;;;;;5093580;28;20222;-42
2022/10/13 02:09:26;;;;;;;11.73;7.65;;;11.90;44.50;;;;;;5081665;28;20572;-42
2022/10/13 02:12:05;;;;;;;11.07;8.55;;;12.80;45.00;;;;;;5094104;28;20225;-43
2022/10/13 02:14:35;;;;;;;14.23;7.20;;;11.80;44.50;;;;;;5094281;28;20184;-40
2022/10/13 02:17:03;;;;;;;13.13;7.38;;;11.90;44.60;;;;;;5093416;28;20584;-43
2022/10/13 02:19:34;;;;;;;10.50;8.70;;;11.80;44.50;;;;;;5094205;28;20186;-42
2022/10/13 02:22:01;;;;;;;11.10;8.00;;;11.90;44.70;;;;;;5094222;28;20156;-42
2022/10/13 02:24:28;;;;;;;9.80;6.60;;;11.90;44.70;;;;;;5093758;28;20206;-42
2022/10/13 02:26:57;;;;;;;11.45;7.10;;;11.90;44.70;;;;;;5092661;28;20232;-43
2022/10/13 02:29:23;;;;;;;10.68;7.90;;;11.80;44.60;;;;;;5093602;28;20203;-41
2022/10/13 02:31:48;;;;;;;14.00;7.60;;;11.80;44.70;;;;;;5094042;28;20168;-43
2022/10/13 02:34:15;;;;;;;8.40;6.50;;;11.80;44.60;;;;;;5093827;28;20172;-42
2022/10/13 02:36:41;;;;;;;12.50;7.97;;;11.80;44.50;;;;;;5093005;28;20714;-43
2022/10/13 02:39:08;;;;;;;9.17;6.80;;;11.80;44.40;;;;;;5093748;28;20228;-42
2022/10/13 02:41:34;;;;;;;9.27;7.20;;;11.80;44.50;;;;;;5093840;28;20254;-43
2022/10/13 02:44:00;;;;;;;13.30;7.47;;;11.80;44.70;;;;;;5093811;28;20723;-43
2022/10/13 02:46:25;;;;;;;9.70;6.87;;;11.80;44.70;;;;;;5092907;28;20207;-42
2022/10/13 02:48:51;;;;;;;9.90;7.80;;;11.80;44.80;;;;;;5093588;28;20290;-40
2022/10/13 02:51:17;;;;;;;12.32;7.32;;;11.80;44.70;;;;;;5093696;28;20174;-42
2022/10/13 02:53:43;;;;;;;7.97;6.27;;;11.80;44.70;;;;;;5093252;28;20662;-43
2022/10/13 02:56:09;;;;;;;10.83;7.80;;;11.90;44.80;;;;;;5092636;28;20674;-42
2022/10/13 02:58:35;;;;;;;10.67;7.47;;;11.90;44.80;;;;;;5093400;28;20279;-43
2022/10/13 03:01:08;;;;;;;15.55;7.47;;;11.90;44.90;;;;;;5093217;28;20406;-44
2022/10/13 03:03:34;;;;;;;11.57;7.93;;;11.90;45.00;;;;;;5093144;28;20178;-42
2022/10/13 03:06:00;;;;;;;10.47;7.73;;;11.90;45.00;;;;;;5092502;28;20267;-43
2022/10/13 03:08:26;;;;;;;9.97;7.97;;;11.90;44.90;;;;;;5093172;28;20461;-41
2022/10/13 03:10:52;;;;;;;8.90;7.53;;;11.90;44.90;;;;;;5093187;28;20762;-43
2022/10/13 03:13:18;;;;;;;11.80;8.27;;;11.90;44.80;;;;;;5093161;28;20176;-41
2022/10/13 03:15:45;;;;;;;10.87;7.03;;;11.90;45.50;;;;;;5092487;28;20979;-43
2022/10/13 03:18:10;;;;;;;13.10;8.10;;;11.90;44.60;;;;;;5092836;28;20829;-42
2022/10/13 03:20:36;;;;;;;24.03;8.50;;;11.90;44.50;;;;;;5092828;28;20176;-43
2022/10/13 03:23:02;;;;;;;10.80;7.63;;;11.90;44.60;;;;;;5092746;28;20180;-41
2022/10/13 03:25:28;;;;;;;9.63;7.10;;;11.80;44.50;;;;;;5092635;28;20647;-44
2022/10/13 03:27:55;;;;;;;13.87;8.90;;;11.80;44.60;;;;;;5092285;28;20195;-43
2022/10/13 03:30:20;;;;;;;8.98;8.07;;;11.70;44.60;;;;;;5092823;28;20172;-43
2022/10/13 03:32:46;;;;;;;11.20;8.40;;;11.70;44.50;;;;;;5092854;28;20172;-42
2022/10/13 03:35:12;;;;;;;11.00;8.40;;;11.70;44.50;;;;;;5092761;28;20539;-42
2022/10/13 03:37:38;;;;;;;10.40;7.33;;;11.70;44.50;;;;;;5091805;28;20266;-43
2022/10/13 03:40:04;;;;;;;14.03;7.23;;;11.60;44.50;;;;;;5092473;28;20414;-43
2022/10/13 03:42:30;;;;;;;9.18;6.88;;;11.60;44.60;;;;;;5092420;28;20176;-43
2022/10/13 03:44:55;;;;;;;12.10;8.97;;;11.60;44.70;;;;;;5092472;28;20230;-43
2022/10/13 03:47:21;;;;;;;10.20;8.17;;;11.50;45.10;;;;;;5090490;28;20228;-43
2022/10/13 03:49:47;;;;;;;9.37;7.10;;;11.50;45.10;;;;;;5092601;28;20200;-42
2022/10/13 03:52:12;;;;;;;13.70;7.50;;;11.50;45.70;;;;;;5092408;28;20655;-42
2022/10/13 03:54:38;;;;;;;11.87;7.13;;;11.50;46.20;;;;;;5092312;28;20175;-41
2022/10/13 03:57:04;;;;;;;10.77;7.80;;;11.50;45.70;;;;;;5091743;28;20176;-41
2022/10/13 03:59:30;;;;;;;10.30;7.80;;;11.60;45.90;;;;;;5092542;28;20172;-42
2022/10/13 04:01:55;;;;;;;9.70;7.40;;;11.60;46.30;;;;;;5092936;28;20361;-42
2022/10/13 04:04:21;;;;;;;10.00;7.17;;;11.60;46.10;;;;;;5093046;28;20405;-42
2022/10/13 04:06:47;;;;;;;11.83;8.43;;;11.70;46.00;;;;;;5091981;28;20225;-43
2022/10/13 04:09:12;;;;;;;16.87;9.27;;;11.80;45.90;;;;;;5092312;28;20235;-42
2022/10/13 04:11:38;;;;;;;13.03;9.03;;;11.80;46.00;;;;;;5092059;28;20699;-43
2022/10/13 04:14:04;;;;;;;8.93;7.20;;;11.90;46.00;;;;;;5092155;28;20172;-41
2022/10/13 04:16:31;;;;;;;13.40;8.20;;;11.90;46.00;;;;;;5091529;28;20264;-42
2022/10/13 04:19:02;;;;;;;13.10;7.57;;;12.00;46.00;;;;;;5091971;28;20200;-43
2022/10/13 04:21:31;;;;;;;12.95;9.18;;;12.00;46.00;;;;;;5092022;28;20179;-42
2022/10/13 04:23:58;;;;;;;14.90;7.45;;;12.10;46.10;;;;;;5092287;28;20176;-43
2022/10/13 04:26:26;;;;;;;19.38;7.85;;;12.10;46.10;;;;;;5091315;28;20185;-42
2022/10/13 04:28:53;;;;;;;12.32;7.82;;;12.10;46.10;;;;;;5091852;28;20241;-41
2022/10/13 04:31:23;;;;;;;12.95;7.30;;;12.10;46.40;;;;;;5091961;28;20221;-41
2022/10/13 04:33:50;;;;;;;11.85;7.68;;;12.10;46.30;;;;;;5091818;28;20635;-42
2022/10/13 04:36:17;;;;;;;14.73;9.00;;;12.10;46.20;;;;;;5091622;28;20539;-40
2022/10/13 04:38:42;;;;;;;10.93;6.80;;;12.20;46.00;;;;;;5091704;28;20265;-42
2022/10/13 04:41:10;;;;;;;15.30;8.50;;;12.20;46.00;;;;;;5091832;28;20172;-41
2022/10/13 04:43:36;;;;;;;14.70;8.15;;;12.10;46.20;;;;;;5092025;28;20180;-41
2022/10/13 04:46:04;;;;;;;11.60;8.00;;;12.10;46.10;;;;;;5091180;28;20536;-41
2022/10/13 04:48:30;;;;;;;12.98;8.95;;;12.20;46.20;;;;;;5091796;28;21049;-40
2022/10/13 04:51:17;;;;;;;10.50;8.00;;;12.20;46.40;;;;;;5095441;28;20309;-41
2022/10/13 04:53:43;;;;;;;11.57;8.13;;;12.20;46.40;;;;;;5095701;28;20402;-41
2022/10/13 04:56:11;;;;;;;15.25;8.55;;;12.20;46.40;;;;;;5095009;28;20263;-41
2022/10/13 04:58:38;;;;;;;15.90;8.13;;;12.20;46.40;;;;;;5095510;28;20200;-39
2022/10/13 05:01:06;;;;;;;12.63;8.70;;;12.20;46.30;;;;;;5095531;28;20259;-41
2022/10/13 05:03:32;;;;;;;13.98;8.85;;;12.30;46.40;;;;;;5095728;28;20180;-41
2022/10/13 05:05:58;;;;;;;14.18;8.57;;;12.30;46.50;;;;;;5094801;28;20180;-40
2022/10/13 05:08:24;;;;;;;12.03;9.13;;;12.40;46.50;;;;;;5095031;28;20207;-42
2022/10/13 05:10:58;;;;;;;18.43;8.70;;;12.40;46.60;;;;;;5095276;28;20167;-42
2022/10/13 05:13:24;;;;;;;12.68;9.02;;;12.40;46.50;;;;;;5095430;28;20645;-42
2022/10/13 05:15:51;;;;;;;20.05;9.02;;;12.50;46.50;;;;;;5094603;28;20252;-42
2022/10/13 05:18:16;;;;;;;12.77;7.32;;;12.50;46.50;;;;;;5095003;28;20212;-42
2022/10/13 05:20:42;;;;;;;12.73;9.93;;;12.50;46.50;;;;;;5095292;28;20710;-42
2022/10/13 05:23:08;;;;;;;19.33;10.50;;;12.50;46.30;;;;;;5095001;28;20917;-42
2022/10/13 05:25:35;;;;;;;16.00;8.60;;;12.50;46.40;;;;;;5094228;28;20410;-42
2022/10/13 05:28:03;;;;;;;11.98;8.40;;;12.50;46.40;;;;;;5094978;28;20242;-42
2022/10/13 05:30:29;;;;;;;11.77;9.20;;;12.50;46.50;;;;;;5095179;28;20207;-42
2022/10/13 05:32:54;;;;;;;12.63;8.90;;;12.50;46.40;;;;;;5094945;28;20195;-42
2022/10/13 05:35:20;;;;;;;18.50;9.23;;;12.50;46.40;;;;;;5094806;28;20176;-42
2022/10/13 05:37:46;;;;;;;11.90;8.67;;;12.60;46.50;;;;;;5094367;28;20245;-41
2022/10/13 05:40:12;;;;;;;18.30;9.73;;;12.60;46.60;;;;;;5094935;28;20202;-41
2022/10/13 05:42:38;;;;;;;13.95;9.07;;;12.60;46.70;;;;;;5094539;28;20272;-41
2022/10/13 05:45:07;;;;;;;17.23;10.17;;;12.60;46.60;;;;;;5094980;28;20640;-42
2022/10/13 05:47:33;;;;;;;12.98;11.43;;;12.70;46.80;;;;;;5093855;28;20267;-43
2022/10/13 05:49:58;;;;;;;25.03;13.43;;;12.70;46.80;;;;;;5094787;28;20290;-42
2022/10/13 05:52:26;;;;;;;15.17;9.83;;;12.70;46.80;;;;;;5094607;28;20955;-42
2022/10/13 05:54:56;;;;;;;15.48;10.45;;;12.80;46.80;;;;;;5094437;28;20259;-41
2022/10/13 05:57:26;;;;;;;15.25;12.30;;;12.80;46.80;;;;;;5093708;28;20184;-41
2022/10/13 06:00:06;;;;;;;15.68;11.57;;;12.90;46.80;;;;;;5094474;28;20167;-43
2022/10/13 06:02:48;;;;;;;17.45;10.88;;;12.90;47.00;;;;;;5093527;28;20663;-41
2022/10/13 06:05:17;;;;;;;15.70;10.18;;;12.90;47.00;;;;;;5094246;28;20229;-42
2022/10/13 06:07:45;;;;;;;16.70;13.00;;;12.90;46.90;;;;;;5093471;28;20192;-43
2022/10/13 06:10:11;;;;;;;18.42;12.02;;;12.90;46.90;;;;;;5094395;28;20168;-42
2022/10/13 06:12:37;;;;;;;18.08;12.10;;;13.00;47.00;;;;;;5094073;28;20172;-41
2022/10/13 06:15:03;;;;;;;15.25;10.98;;;13.10;47.20;;;;;;5094083;28;20686;-43
2022/10/13 06:17:29;;;;;;;15.15;10.73;;;13.10;47.10;;;;;;5093435;28;20353;-42
2022/10/13 06:19:55;;;;;;;16.30;10.37;;;13.20;47.10;;;;;;5093842;28;20206;-42
2022/10/13 06:22:21;;;;;;;15.67;12.07;;;13.20;47.30;;;;;;5094132;28;20413;-41
2022/10/13 06:24:47;;;;;;;14.27;11.30;;;13.20;47.20;;;;;;5094078;28;20172;-41
2022/10/13 06:27:13;;;;;;;14.17;11.03;;;13.30;47.20;;;;;;5093306;28;20414;-42
2022/10/13 06:29:39;;;;;;;18.08;11.43;;;13.30;47.20;;;;;;5093724;28;20464;-41
2022/10/13 06:32:05;;;;;;;18.20;12.00;;;13.30;47.00;;;;;;5092331;28;20176;-42
2022/10/13 06:34:31;;;;;;;19.00;11.23;;;13.30;47.20;;;;;;5093548;28;20218;-41
2022/10/13 06:36:57;;;;;;;19.40;12.75;;;13.30;47.10;;;;;;5093037;28;20410;-42
2022/10/13 06:39:23;;;;;;;21.63;12.60;;;13.30;47.20;;;;;;5093568;28;20244;-42
2022/10/13 06:41:49;;;;;;;19.37;12.00;;;13.30;47.10;;;;;;5093550;28;20170;-42
2022/10/13 06:44:15;;;;;;;14.65;11.15;;;13.40;47.10;;;;;;5093456;28;20413;-42
2022/10/13 06:46:41;;;;;;;14.90;10.67;;;13.40;47.20;;;;;;5092914;28;20176;-41
2022/10/13 06:49:09;;;;;;;20.13;11.00;;;13.40;47.20;;;;;;5093127;28;21064;-42
2022/10/13 06:51:35;;;;;;;18.02;11.38;;;13.50;47.20;;;;;;5093261;28;20183;-41
2022/10/13 06:54:00;;;;;;;16.30;11.75;;;13.50;47.20;;;;;;5093262;28;20180;-42
2022/10/13 06:56:28;;;;;;;15.50;12.47;;;13.50;47.30;;;;;;5092681;28;20168;-42
2022/10/13 06:58:54;;;;;;;18.77;13.63;;;13.60;47.40;;;;;;5093347;28;20230;-42
2022/10/13 07:01:19;;;;;;;22.30;13.67;;;13.80;47.60;;;;;;5093206;28;20175;-42
2022/10/13 07:03:49;;;;;;;18.13;11.90;;;14.10;47.80;;;;;;5093093;28;20361;-41
2022/10/13 07:06:15;;;;;;;16.33;11.95;;;14.40;48.00;;;;;;5092718;28;20406;-43
2022/10/13 07:08:41;;;;;;;14.15;11.07;;;14.60;47.60;;;;;;5092820;28;20199;-42
2022/10/13 07:11:09;;;;;;;19.70;12.27;;;14.90;47.50;;;;;;5093145;28;20678;-43
2022/10/13 07:13:34;;;;;;;14.88;10.50;;;15.20;47.30;;;;;;5092794;28;20696;-42
2022/10/13 07:16:04;;;;;;;19.87;12.07;;;15.50;47.00;;;;;;5092395;28;20179;-43
2022/10/13 07:18:31;;;;;;;17.80;11.35;;;15.80;46.30;;;;;;5092593;28;20290;-42
2022/10/13 07:20:58;;;;;;;15.98;10.70;;;16.00;46.10;;;;;;5092820;28;20175;-43
2022/10/13 07:23:24;;;;;;;15.75;11.40;;;16.20;45.80;;;;;;5092745;28;20184;-42
2022/10/13 07:25:50;;;;;;;15.23;12.15;;;16.30;45.20;;;;;;5092119;28;20168;-43
2022/10/13 07:28:16;;;;;;;16.00;10.98;;;16.40;44.30;;;;;;5092599;28;20678;-43
2022/10/13 07:30:43;;;;;;;12.33;10.80;;;16.40;44.50;;;;;;5093012;28;20180;-41
2022/10/13 07:33:09;;;;;;;19.73;12.45;;;16.30;44.90;;;;;;5092889;28;20194;-43
2022/10/13 07:35:39;;;;;;;16.58;9.82;;;16.30;44.10;;;;;;5092219;28;20172;-43
2022/10/13 07:38:05;;;;;;;16.75;12.13;;;16.30;44.40;;;;;;5092316;28;20275;-41
2022/10/13 07:40:31;;;;;;;18.13;12.55;;;16.30;44.70;;;;;;5092473;28;20179;-42
2022/10/13 07:42:57;;;;;;;18.70;11.10;;;16.30;44.10;;;;;;5092397;28;20172;-43
2022/10/13 07:45:24;;;;;;;17.52;12.35;;;16.30;44.50;;;;;;5092209;28;20172;-43
2022/10/13 07:47:49;;;;;;;17.38;11.80;;;16.40;44.50;;;;;;5091735;28;20200;-42
2022/10/13 07:50:15;;;;;;;16.30;12.63;;;16.50;44.90;;;;;;5092433;28;20176;-43
2022/10/13 07:52:41;;;;;;;11.88;10.48;;;16.80;45.00;;;;;;5092569;28;20168;-43
2022/10/13 07:55:08;;;;;;;14.55;10.80;;;17.10;44.50;;;;;;5092812;28;20176;-43
2022/10/13 07:57:33;;;;;;;15.13;11.75;;;17.40;44.00;;;;;;5092247;28;20680;-43
2022/10/13 07:59:59;;;;;;;17.47;10.73;;;17.70;43.30;;;;;;5092741;28;20193;-42
2022/10/13 08:02:25;;;;;;;16.20;10.90;;;17.90;42.60;;;;;;5092413;28;20722;-42
2022/10/13 08:04:51;;;;;;;19.02;11.45;;;18.00;42.00;;;;;;5092505;28;20417;-43
2022/10/13 08:07:17;;;;;;;16.83;12.10;;;18.00;41.90;;;;;;5091691;28;20176;-43
2022/10/13 08:09:43;;;;;;;14.37;12.03;;;18.00;41.40;;;;;;5092021;28;20464;-43
2022/10/13 08:12:09;;;;;;;18.07;11.87;;;17.90;41.60;;;;;;5092055;28;20409;-43
2022/10/13 08:14:35;;;;;;;13.70;11.10;;;17.80;41.10;;;;;;5091992;28;20471;-43
2022/10/13 08:17:00;;;;;;;16.07;12.30;;;17.80;41.10;;;;;;5091444;28;20642;-42
2022/10/13 08:19:27;;;;;;;16.83;11.27;;;17.70;41.40;;;;;;5092241;28;20209;-42
2022/10/13 08:21:53;;;;;;;13.13;11.10;;;17.70;41.80;;;;;;5092324;28;20683;-42
2022/10/13 08:24:21;;;;;;;17.23;10.60;;;17.70;41.90;;;;;;5093485;28;20198;-41
2022/10/13 08:26:48;;;;;;;17.23;11.90;;;16.60;41.70;;;;;;5095562;28;20179;-42
2022/10/13 08:29:15;;;;;;;16.58;11.50;;;17.90;41.90;;;;;;5096001;28;20264;-42
2022/10/13 08:31:41;;;;;;;15.73;11.05;;;18.00;42.00;;;;;;5096323;28;20637;-42
2022/10/13 08:34:07;;;;;;;15.40;11.77;;;18.20;41.30;;;;;;5096159;28;20232;-41
2022/10/13 08:36:33;;;;;;;16.55;11.07;;;18.40;41.50;;;;;;5095397;28;20167;-43
2022/10/13 08:38:59;;;;;;;20.23;10.93;;;18.60;40.90;;;;;;5095864;28;20202;-43
2022/10/13 08:41:32;;;;;;;20.13;11.50;;;19.00;41.00;;;;;;5095906;28;20488;-43
2022/10/13 08:44:23;;;;;;;12.02;10.40;;;19.30;40.40;;;;;;5095882;28;20172;-43
2022/10/13 08:47:12;;;;;;;17.10;10.30;;;19.50;39.50;;;;;;5094495;28;20179;-43
2022/10/13 08:49:40;;;;;;;16.42;10.13;;;19.70;39.80;;;;;;5095739;28;20223;-43
2022/10/13 08:52:06;;;;;;;14.65;10.93;;;20.00;38.50;;;;;;5095677;28;20179;-44
2022/10/13 08:54:32;;;;;;;12.97;9.47;;;20.10;38.20;;;;;;5095704;28;20558;-44
2022/10/13 08:56:58;;;;;;;17.55;11.45;;;20.30;38.10;;;;;;5094988;28;20666;-43
2022/10/13 08:59:24;;;;;;;15.20;9.82;;;20.40;37.70;;;;;;5095451;28;20202;-42
2022/10/13 09:01:54;;;;;;;17.10;10.57;;;20.50;37.80;;;;;;5095767;28;20171;-43
2022/10/13 09:04:36;;;;;;;13.18;10.15;;;20.60;37.30;;;;;;5095707;28;20179;-43
2022/10/13 09:07:10;;;;;;;15.05;11.20;;;20.70;37.10;;;;;;5094794;28;20215;-42
2022/10/13 09:09:37;;;;;;;17.52;10.23;;;20.60;37.10;;;;;;5095279;28;20191;-43
2022/10/13 09:12:04;;;;;;;19.10;12.70;;;20.60;37.10;;;;;;5095256;28;20175;-44
2022/10/13 09:14:31;;;;;;;14.80;10.93;;;20.60;37.70;;;;;;5095192;28;20167;-44
2022/10/13 09:17:14;;;;;;;16.60;10.68;;;20.70;38.10;;;;;;5094560;28;20179;-44
2022/10/13 09:19:40;;;;;;;19.13;12.15;;;20.80;36.90;;;;;;5095378;28;20172;-44
2022/10/13 09:22:32;;;;;;;13.57;9.67;;;20.70;37.90;;;;;;5095053;28;20544;-44
2022/10/13 09:25:08;;;;;;;12.85;9.32;;;20.70;37.70;;;;;;5095291;28;20397;-43
2022/10/13 09:27:58;;;;;;;15.90;11.23;;;20.70;37.90;;;;;;5094543;28;20195;-44
2022/10/13 09:30:37;;;;;;;13.60;10.55;;;20.80;38.00;;;;;;5095043;28;20682;-44
2022/10/13 09:33:11;;;;;;;16.35;10.48;;;20.90;38.00;;;;;;5095062;28;20171;-44
2022/10/13 09:35:38;;;;;;;15.88;9.82;;;20.90;37.30;;;;;;5093964;28;20862;-43
2022/10/13 09:38:09;;;;;;;14.07;9.88;;;21.00;37.50;;;;;;5094672;28;20294;-44
2022/10/13 09:40:35;;;;;;;17.23;12.23;;;21.00;37.40;;;;;;5094832;28;20171;-44
2022/10/13 09:43:16;;;;;;;13.48;11.15;;;21.10;38.60;;;;;;5094697;28;20671;-44
2022/10/13 09:45:43;;;;;;;13.02;11.25;;;21.20;38.50;;;;;;5094071;28;20636;-44
2022/10/13 09:48:23;;;;;;;13.60;10.65;;;21.40;38.00;;;;;;5094353;28;20275;-44
2022/10/13 09:50:51;;;;;;;15.68;11.18;;;21.60;37.00;;;;;;5094698;28;20254;-44
2022/10/13 09:53:38;;;;;;;19.35;10.98;;;21.60;37.00;;;;;;5094765;28;20206;-44
2022/10/13 09:56:09;;;;;;;14.30;8.07;;;21.70;37.50;;;;;;5093789;28;20152;-45
2022/10/13 09:58:39;;;;;;;12.53;9.90;;;21.80;37.20;;;;;;5094172;28;20426;-44
2022/10/13 10:01:07;;;;;;;15.43;10.93;;;21.90;36.40;;;;;;5094327;28;20396;-44
2022/10/13 10:03:36;;;;;;;15.33;10.53;;;21.90;36.80;;;;;;5094268;28;20184;-44
2022/10/13 10:06:13;;;;;;;14.40;11.15;;;22.10;36.80;;;;;;5093842;28;20820;-44
2022/10/13 10:09:32;;;;;;;21.37;11.77;;;22.20;36.30;;;;;;5093717;28;20609;-44
2022/10/13 10:12:00;;;;;;;16.92;12.25;;;22.30;36.30;;;;;;5068879;28;20850;-44
2022/10/13 10:14:32;;;;;;;14.87;10.63;;;22.40;36.60;;;;;;5094403;28;20247;-44
2022/10/13 10:17:19;;;;;;;15.00;9.10;;;22.40;35.80;;;;;;5093836;28;20393;-44
2022/10/13 10:20:23;;;;;;;12.40;10.60;;;22.60;36.50;;;;;;5093551;28;20526;-44
2022/10/13 10:23:19;;;;;;;12.83;9.40;;;22.60;35.80;;;;;;5094080;28;20183;-45
2022/10/13 10:26:40;;;;;;;14.53;9.80;;;22.50;36.30;;;;;;5070504;28;20989;-45
2022/10/13 10:29:14;;;;;;;13.67;10.33;;;22.40;36.00;;;;;;5069845;28;20465;-44
2022/10/13 10:31:50;;;;;;;14.17;11.00;;;22.40;36.40;;;;;;5071183;28;20422;-44
2022/10/13 10:34:35;;;;;;;15.30;9.80;;;22.40;36.50;;;;;;5071024;28;20414;-44
2022/10/13 10:37:17;;;;;;;18.03;12.00;;;22.30;36.60;;;;;;5070470;28;20480;-44
2022/10/13 10:40:09;;;;;;;12.93;11.13;;;22.30;37.00;;;;;;5071018;28;20930;-44
2022/10/13 10:42:49;;;;;;;13.75;10.95;;;22.30;37.00;;;;;;5070889;28;20402;-44
2022/10/13 10:45:20;;;;;;;12.50;10.60;;;22.30;37.10;;;;;;5070838;28;20173;-44
2022/10/13 10:47:50;;;;;;;13.67;10.57;;;22.30;36.90;;;;;;5069571;28;20418;-44
2022/10/13 10:50:17;;;;;;;11.60;9.57;;;22.20;37.10;;;;;;5070766;28;21035;-44
2022/10/13 10:52:57;;;;;;;17.53;9.63;;;22.20;36.50;;;;;;5070680;28;20407;-44
2022/10/13 10:55:43;;;;;;;18.20;9.17;;;22.20;36.50;;;;;;5070680;28;20395;-45
2022/10/13 10:59:06;;;;;;;14.45;9.38;;;22.10;36.30;;;;;;5070668;28;20414;-44
2022/10/13 11:01:36;;;;;;;13.70;10.05;;;22.10;36.60;;;;;;5010982;28;20233;-44
2022/10/13 11:04:23;;;;;;;14.00;11.43;;;22.00;36.80;;;;;;5049799;28;20189;-44
2022/10/13 11:06:49;;;;;;;16.40;10.57;;;22.00;36.60;;;;;;5049856;28;20419;-44
2022/10/13 11:09:40;;;;;;;10.63;9.60;;;22.00;37.10;;;;;;5050273;28;20463;-44
2022/10/13 11:12:44;;;;;;;13.40;10.13;;;22.00;37.10;;;;;;5050335;28;20188;-44
2022/10/13 11:15:14;;;;;;;12.30;9.13;;;22.00;36.30;;;;;;5050312;28;20219;-44
2022/10/13 11:17:41;;;;;;;18.30;10.27;;;22.10;36.80;;;;;;5049531;28;20447;-44
2022/10/13 11:20:19;;;;;;;11.20;8.33;;;22.40;36.30;;;;;;5050162;28;20412;-44
2022/10/13 11:23:05;;;;;;;13.23;9.50;;;22.80;36.70;;;;;;5050216;28;20403;-44
2022/10/13 11:25:44;;;;;;;12.80;9.30;;;23.00;35.50;;;;;;5042729;28;20872;-45
2022/10/13 11:28:22;;;;;;;14.83;11.50;;;23.10;35.00;;;;;;5049894;28;20432;-44
2022/10/13 11:30:56;;;;;;;10.93;9.37;;;23.20;35.40;;;;;;5050779;28;20943;-44
2022/10/13 11:33:40;;;;;;;16.00;9.30;;;23.20;34.40;;;;;;5092760;28;20503;-44
2022/10/13 11:36:30;;;;;;;10.60;8.73;;;23.20;34.90;;;;;;5091976;28;20431;-45
2022/10/13 11:39:02;;;;;;;15.93;9.00;;;23.30;34.50;;;;;;5092367;28;20421;-44
2022/10/13 11:41:34;;;;;;;9.50;7.80;;;23.30;35.20;;;;;;5092673;28;20406;-45
2022/10/13 11:44:12;;;;;;;16.70;9.13;;;23.30;35.40;;;;;;5092536;28;20386;-44
2022/10/13 11:46:52;;;;;;;9.80;8.07;;;23.40;35.00;;;;;;5092111;28;20393;-45
2022/10/13 11:49:57;;;;;;;12.03;8.07;;;23.60;34.20;;;;;;5092223;28;20450;-45
2022/10/13 11:52:26;;;;;;;10.20;8.00;;;23.80;34.70;;;;;;5092287;28;20398;-44
2022/10/13 11:55:22;;;;;;;11.70;8.40;;;24.20;34.80;;;;;;5092323;28;20427;-44
2022/10/13 11:57:48;;;;;;;17.40;8.90;;;24.40;34.70;;;;;;5091605;28;21113;-45
2022/10/13 12:00:17;;;;;;;10.33;8.67;;;24.40;34.00;;;;;;5091618;28;20416;-43
2022/10/13 12:02:52;;;;;;;9.80;7.10;;;24.40;34.00;;;;;;5092162;28;20172;-45
2022/10/13 12:05:27;;;;;;;11.20;8.93;;;24.30;33.80;;;;;;5092164;28;20389;-42
2022/10/13 12:07:55;;;;;;;10.17;8.13;;;24.20;32.80;;;;;;5091500;28;20936;-46
2022/10/13 12:10:34;;;;;;;8.33;7.10;;;24.10;32.90;;;;;;5092049;28;20781;-44
2022/10/13 12:13:01;;;;;;;9.67;7.63;;;24.10;32.20;;;;;;5092174;28;20402;-44
2022/10/13 12:15:41;;;;;;;12.83;7.43;;;23.90;33.20;;;;;;5092207;28;20407;-45
2022/10/13 12:18:32;;;;;;;9.63;7.40;;;23.80;34.00;;;;;;5091927;28;20957;-46
2022/10/13 12:21:08;;;;;;;13.77;8.43;;;23.80;34.30;;;;;;5092246;28;20405;-44
2022/10/13 12:23:34;;;;;;;14.43;8.90;;;23.70;33.50;;;;;;5090704;28;20464;-44
2022/10/13 12:26:00;;;;;;;13.70;8.70;;;23.60;33.70;;;;;;5091607;28;20406;-44
2022/10/13 12:28:49;;;;;;;11.17;8.93;;;23.60;33.60;;;;;;5091902;28;20522;-42
2022/10/13 12:31:24;;;;;;;9.93;8.07;;;23.50;33.50;;;;;;5091850;28;20405;-42
2022/10/13 12:33:54;;;;;;;10.63;7.43;;;23.50;33.80;;;;;;5091827;28;20932;-44
2022/10/13 12:36:29;;;;;;;11.90;7.90;;;23.40;33.30;;;;;;5091560;28;20402;-44
2022/10/13 12:38:59;;;;;;;12.00;8.00;;;23.30;33.70;;;;;;5091778;28;20833;-44
2022/10/13 12:41:28;;;;;;;12.93;7.20;;;23.30;34.00;;;;;;5091807;28;20397;-46
2022/10/13 12:43:54;;;;;;;12.37;7.60;;;23.30;34.60;;;;;;5092045;28;20406;-45
2022/10/13 12:46:39;;;;;;;11.23;7.17;;;23.30;34.50;;;;;;5091106;28;20921;-45
2022/10/13 12:49:06;;;;;;;11.47;7.63;;;23.30;34.70;;;;;;5091614;28;20458;-44
2022/10/13 12:51:35;;;;;;;14.80;8.70;;;23.30;34.70;;;;;;5091743;28;20404;-45
2022/10/13 12:54:17;;;;;;;10.03;7.30;;;23.40;34.80;;;;;;5091843;28;20467;-45